createdAt,value
2022-11-21T00:02:37.150Z,88.85
2022-11-21T00:05:41.641Z,89.06
2022-11-21T00:08:44.686Z,89.19
2022-11-21T00:11:46.842Z,88.94
2022-11-21T00:14:51.016Z,89.35
2022-11-21T00:17:53.741Z,88.91
2022-11-21T00:20:55.868Z,89.25
2022-11-21T00:23:58.312Z,88.40
2022-11-21T00:27:00.469Z,88.26
2022-11-21T00:30:02.907Z,88.93
2022-11-21T00:33:05.227Z,89.27
2022-11-21T00:36:09.462Z,89.83
2022-11-21T00:39:11.939Z,89.53
2022-11-21T00:42:13.804Z,89.77
2022-11-21T00:45:21.167Z,89.94
2022-11-21T00:48:25.666Z,90.33
2022-11-21T00:51:27.864Z,89.95
2022-11-21T00:54:29.824Z,89.76
2022-11-21T00:57:32.418Z,89.71
2022-11-21T01:00:34.274Z,88.98
2022-11-21T01:03:36.860Z,89.07
2022-11-21T01:06:38.980Z,88.41
2022-11-21T01:09:43.072Z,88.55
2022-11-21T01:12:45.587Z,88.90
2022-11-21T01:15:47.489Z,89.51
2022-11-21T01:18:49.322Z,89.44
2022-11-21T01:21:51.249Z,89.57
2022-11-21T01:24:53.085Z,89.72
2022-11-21T01:27:55.695Z,89.28
2022-11-21T01:31:06.740Z,90.31
2022-11-21T01:34:08.567Z,90.45
2022-11-21T01:37:10.412Z,89.79
2022-11-21T01:40:13.670Z,90.06
2022-11-21T01:43:16.819Z,90.39
2022-11-21T01:46:23.398Z,90.49
2022-11-21T01:49:31.663Z,90.44
2022-11-21T01:52:38.093Z,89.74
2022-11-21T01:55:40.612Z,89.97
2022-11-21T01:58:43.570Z,89.88
2022-11-21T02:01:49.967Z,89.63
2022-11-21T02:04:52.982Z,89.79
2022-11-21T02:07:58.692Z,90.66
2022-11-21T02:11:17.632Z,90.40
2022-11-21T02:14:19.632Z,90.37
2022-11-21T02:17:21.370Z,89.83
2022-11-21T02:20:25.092Z,89.73
2022-11-21T02:23:42.840Z,89.49
2022-11-21T02:26:44.919Z,89.77
2022-11-21T02:29:46.756Z,89.73
2022-11-21T02:32:48.739Z,89.47
2022-11-21T02:35:58.183Z,89.76
2022-11-21T02:38:59.907Z,90.93
2022-11-21T02:42:34.415Z,90.43
2022-11-21T02:45:39.907Z,90.26
2022-11-21T02:48:41.732Z,89.76
2022-11-21T02:51:43.867Z,89.08
2022-11-21T02:54:45.553Z,89.10
2022-11-21T02:57:47.466Z,90.56
2022-11-21T03:00:49.414Z,91.13
2022-11-21T03:03:51.176Z,90.42
2022-11-21T03:06:52.952Z,90.31
2022-11-21T03:09:54.629Z,90.33
2022-11-21T03:13:01.392Z,89.97
2022-11-21T03:16:03.370Z,90.13
2022-11-21T03:19:05.032Z,89.79
2022-11-21T03:22:06.835Z,89.84
2022-11-21T03:25:08.930Z,89.95
2022-11-21T03:28:10.723Z,89.83
2022-11-21T03:31:12.502Z,89.02
2022-11-21T03:34:14.224Z,89.22
2022-11-21T03:37:17.184Z,89.71
2022-11-21T03:40:18.967Z,89.97
2022-11-21T03:43:20.759Z,89.73
2022-11-21T03:46:22.716Z,89.17
2022-11-21T03:49:24.393Z,89.22
2022-11-21T03:52:26.184Z,90.28
2022-11-21T03:55:27.902Z,89.81
2022-11-21T03:58:29.727Z,89.90
2022-11-21T04:01:36.445Z,89.34
2022-11-21T04:04:38.688Z,90.34
2022-11-21T04:07:40.456Z,90.74
2022-11-21T04:10:52.764Z,90.63
2022-11-21T04:13:54.472Z,90.04
2022-11-21T04:16:56.190Z,89.76
2022-11-21T04:19:57.979Z,90.81
2022-11-21T04:22:59.792Z,90.84
2022-11-21T04:26:01.757Z,90.54
2022-11-21T04:29:03.518Z,91.48
2022-11-21T04:32:05.286Z,90.37
2022-11-21T04:35:07.970Z,89.90
2022-11-21T04:38:10.024Z,90.66
2022-11-21T04:41:11.771Z,90.49
2022-11-21T04:44:13.828Z,90.52
2022-11-21T04:47:15.618Z,89.74
2022-11-21T04:50:18.849Z,89.64
2022-11-21T04:53:20.660Z,88.88
2022-11-21T04:56:22.390Z,88.80
2022-11-21T04:59:24.215Z,89.32
2022-11-21T05:02:26.137Z,88.98
2022-11-21T05:05:27.854Z,89.46
2022-11-21T05:08:29.704Z,88.97
2022-11-21T05:11:50.045Z,89.20
2022-11-21T05:14:51.804Z,89.69
2022-11-21T05:17:53.620Z,89.19
2022-11-21T05:20:55.525Z,88.93
2022-11-21T05:23:57.426Z,89.39
2022-11-21T05:26:59.321Z,89.21
2022-11-21T05:30:01.292Z,89.52
2022-11-21T05:33:03.271Z,89.61
2022-11-21T05:36:05.409Z,89.42
2022-11-21T05:39:07.425Z,90.19
2022-11-21T05:42:09.402Z,91.11
2022-11-21T05:45:11.541Z,91.64
2022-11-21T05:48:13.586Z,91.30
2022-11-21T05:51:16.916Z,91.66
2022-11-21T05:54:18.751Z,91.54
2022-11-21T05:57:20.865Z,91.23
2022-11-21T06:00:22.706Z,91.22
2022-11-21T06:03:30.476Z,91.15
2022-11-21T06:06:32.283Z,91.03
2022-11-21T06:09:34.220Z,92.78
2022-11-21T06:12:36.089Z,92.67
2022-11-21T06:15:38.035Z,94.19
2022-11-21T06:18:44.946Z,93.60
2022-11-21T06:21:46.886Z,92.38
2022-11-21T06:24:48.849Z,93.28
2022-11-21T06:27:50.631Z,93.01
2022-11-21T06:30:52.639Z,92.36
2022-11-21T06:33:55.966Z,91.89
2022-11-21T06:36:57.871Z,92.62
2022-11-21T06:40:00.032Z,92.32
2022-11-21T06:43:02.049Z,91.11
2022-11-21T06:46:04.348Z,91.69
2022-11-21T06:49:07.437Z,91.41
2022-11-21T06:52:09.194Z,91.05
2022-11-21T06:55:12.073Z,90.66
2022-11-21T06:58:13.973Z,90.56
2022-11-21T07:01:15.769Z,90.68
2022-11-21T07:04:17.762Z,90.56
2022-11-21T07:07:19.790Z,91.76
2022-11-21T07:10:21.717Z,92.79
2022-11-21T07:13:23.684Z,92.96
2022-11-21T07:16:26.544Z,92.87
2022-11-21T07:19:28.795Z,94.21
2022-11-21T07:22:31.336Z,93.81
2022-11-21T07:25:36.662Z,93.23
2022-11-21T07:28:40.185Z,93.13
2022-11-21T07:31:42.135Z,93.23
2022-11-21T07:34:44.197Z,93.86
2022-11-21T07:37:46.156Z,93.51
2022-11-21T07:40:48.003Z,94.00
2022-11-21T07:43:49.991Z,93.37
2022-11-21T07:46:56.031Z,92.88
2022-11-21T07:49:57.964Z,93.01
2022-11-21T07:53:00.294Z,92.92
2022-11-21T07:56:02.251Z,93.42
2022-11-21T07:59:04.172Z,92.35
2022-11-21T08:02:06.622Z,92.87
2022-11-21T08:05:08.833Z,91.84
2022-11-21T08:08:14.278Z,92.29
2022-11-21T08:11:16.890Z,92.53
2022-11-21T08:14:18.905Z,94.08
2022-11-21T08:17:20.697Z,93.86
2022-11-21T08:20:22.580Z,94.03
2022-11-21T08:23:24.562Z,93.58
2022-11-21T08:26:26.548Z,96.46
2022-11-21T08:29:28.595Z,96.42
2022-11-21T08:32:30.543Z,95.84
2022-11-21T08:35:32.580Z,95.85
2022-11-21T08:38:34.526Z,96.29
2022-11-21T08:41:55.127Z,97.02
2022-11-21T08:44:57.267Z,97.90
2022-11-21T08:47:59.488Z,100.00
2022-11-21T08:51:01.384Z,99.61
2022-11-21T08:54:03.833Z,100.00
2022-11-21T08:57:05.666Z,100.00
2022-11-21T09:00:09.072Z,100.00
2022-11-21T09:03:11.002Z,100.00
2022-11-21T09:06:13.509Z,100.00
2022-11-21T09:09:17.382Z,100.00
2022-11-21T09:12:22.403Z,100.00
2022-11-21T09:15:42.925Z,100.00
2022-11-21T09:18:44.998Z,100.00
2022-11-21T09:21:49.998Z,100.00
2022-11-21T09:24:52.088Z,100.00
2022-11-21T09:27:54.041Z,100.00
2022-11-21T09:30:56.389Z,100.00
2022-11-21T09:33:58.208Z,100.00
2022-11-21T09:37:00.220Z,100.00
2022-11-21T09:40:02.396Z,99.83
2022-11-21T09:43:26.114Z,99.21
2022-11-21T09:46:31.224Z,99.78
2022-11-21T09:49:41.212Z,99.49
2022-11-21T09:52:55.171Z,100.00
2022-11-21T09:56:00.253Z,100.00
2022-11-21T09:59:17.341Z,100.00
2022-11-21T10:02:23.018Z,100.00
2022-11-21T10:06:06.399Z,99.73
2022-11-21T10:09:36.010Z,98.97
2022-11-21T10:12:50.000Z,100.00
2022-11-21T10:16:09.611Z,100.00
2022-11-21T10:19:55.089Z,100.00
2022-11-21T10:23:22.897Z,100.00
2022-11-21T10:26:43.586Z,100.00
2022-11-21T10:30:16.841Z,100.00
2022-11-21T10:33:27.073Z,100.00
2022-11-21T10:36:34.065Z,100.00
2022-11-21T10:39:44.977Z,100.00
2022-11-21T10:43:00.525Z,100.00
2022-11-21T10:46:02.601Z,100.00
2022-11-21T10:49:05.152Z,100.00
2022-11-21T10:52:16.941Z,100.00
2022-11-21T10:55:26.464Z,99.47
2022-11-21T10:58:45.289Z,97.92
2022-11-21T11:01:55.866Z,98.21
2022-11-21T11:05:16.896Z,97.37
2022-11-21T11:08:19.170Z,97.37
2022-11-21T11:11:22.649Z,96.39
2022-11-21T11:14:32.364Z,98.59
2022-11-21T11:17:34.683Z,99.45
2022-11-21T11:20:36.654Z,100.00
2022-11-21T11:23:38.589Z,100.00
2022-11-21T11:26:49.812Z,100.00
2022-11-21T11:29:53.243Z,99.68
2022-11-21T11:32:55.429Z,99.15
2022-11-21T11:36:26.911Z,100.00
2022-11-21T11:39:50.742Z,100.00
2022-11-21T11:43:23.033Z,100.00
2022-11-21T11:47:11.665Z,100.00
2022-11-21T11:50:18.350Z,100.00
2022-11-21T11:53:22.956Z,100.00
2022-11-21T11:56:34.881Z,100.00
2022-11-21T11:59:43.068Z,99.86
2022-11-21T12:02:53.862Z,100.00
2022-11-21T12:06:09.740Z,99.30
2022-11-21T12:09:35.805Z,98.73
2022-11-21T12:12:55.412Z,98.29
2022-11-21T12:16:07.124Z,98.13
2022-11-21T12:19:21.132Z,96.95
2022-11-21T12:22:23.695Z,96.27
2022-11-21T12:25:36.930Z,95.89
2022-11-21T12:28:43.192Z,95.13
2022-11-21T12:31:56.198Z,94.62
2022-11-21T12:35:19.208Z,94.95
2022-11-21T12:38:44.542Z,94.26
2022-11-21T12:42:16.662Z,94.91
2022-11-21T12:45:32.121Z,95.16
2022-11-21T12:49:21.820Z,95.84
2022-11-21T12:52:59.053Z,95.73
2022-11-21T12:56:09.914Z,95.23
2022-11-21T12:59:13.282Z,94.60
2022-11-21T13:02:32.401Z,94.57
2022-11-21T13:05:41.159Z,94.96
2022-11-21T13:08:44.969Z,95.15
2022-11-21T13:12:01.690Z,92.96
2022-11-21T13:15:27.075Z,93.12
2022-11-21T13:18:33.532Z,93.10
2022-11-21T13:21:50.776Z,92.82
2022-11-21T13:24:56.976Z,93.47
2022-11-21T13:28:14.563Z,92.85
2022-11-21T13:31:32.483Z,92.56
2022-11-21T13:34:39.376Z,92.09
2022-11-21T13:38:03.550Z,92.19
2022-11-21T13:41:25.983Z,93.21
2022-11-21T13:44:32.007Z,93.19
2022-11-21T13:47:52.470Z,93.22
2022-11-21T13:51:26.049Z,95.09
2022-11-21T13:54:59.097Z,93.96
2022-11-21T13:58:31.839Z,94.03
2022-11-21T14:02:08.021Z,93.11
2022-11-21T14:05:37.781Z,93.55
2022-11-21T14:08:41.135Z,92.74
2022-11-21T14:11:52.504Z,92.67
2022-11-21T14:15:00.522Z,92.79
2022-11-21T14:18:02.953Z,92.36
2022-11-21T14:21:05.465Z,93.03
2022-11-21T14:24:19.650Z,95.40
2022-11-21T14:27:29.095Z,94.90
2022-11-21T14:30:32.822Z,94.49
2022-11-21T14:33:42.498Z,94.26
2022-11-21T14:36:45.645Z,93.53
2022-11-21T14:39:55.454Z,93.85
2022-11-21T14:43:00.250Z,93.31
2022-11-21T14:46:02.239Z,94.04
2022-11-21T14:49:16.172Z,93.51
2022-11-21T14:52:21.527Z,93.19
2022-11-21T14:55:33.373Z,92.38
2022-11-21T14:58:36.068Z,93.65
2022-11-21T15:01:39.341Z,93.77
2022-11-21T15:04:48.714Z,94.18
2022-11-21T15:08:10.775Z,94.44
2022-11-21T15:11:18.005Z,95.01
2022-11-21T15:14:29.842Z,94.71
2022-11-21T15:17:32.722Z,95.17
2022-11-21T15:20:35.018Z,95.81
2022-11-21T15:23:40.507Z,96.42
2022-11-21T15:26:42.966Z,95.83
2022-11-21T15:29:45.201Z,95.59
2022-11-21T15:33:07.995Z,94.69
2022-11-21T15:36:14.565Z,94.95
2022-11-21T15:39:24.621Z,95.23
2022-11-21T15:42:46.920Z,94.17
2022-11-21T15:45:49.792Z,92.87
2022-11-21T15:48:53.004Z,92.99
2022-11-21T15:52:11.031Z,93.39
2022-11-21T15:55:21.680Z,92.94
2022-11-21T15:58:24.159Z,93.68
2022-11-21T16:01:30.093Z,93.52
2022-11-21T16:04:32.349Z,92.74
2022-11-21T16:07:35.261Z,92.93
2022-11-21T16:10:37.599Z,93.07
2022-11-21T16:13:43.470Z,92.54
2022-11-21T16:16:47.833Z,93.54
2022-11-21T16:19:50.338Z,95.48
2022-11-21T16:22:52.432Z,95.58
2022-11-21T16:25:55.115Z,96.66
2022-11-21T16:28:58.830Z,96.44
2022-11-21T16:32:01.050Z,95.79
2022-11-21T16:35:03.329Z,95.64
2022-11-21T16:38:11.610Z,94.89
2022-11-21T16:41:13.882Z,95.28
2022-11-21T16:44:16.951Z,94.03
2022-11-21T16:47:18.936Z,95.70
2022-11-21T16:50:23.958Z,96.72
2022-11-21T16:53:26.097Z,97.72
2022-11-21T16:56:29.073Z,97.71
2022-11-21T16:59:34.266Z,98.81
2022-11-21T17:02:38.666Z,99.90
2022-11-21T17:05:41.014Z,100.00
2022-11-21T17:08:47.178Z,98.46
2022-11-21T17:11:49.655Z,98.33
2022-11-21T17:14:52.688Z,98.87
2022-11-21T17:17:57.472Z,98.45
2022-11-21T17:21:03.175Z,97.74
2022-11-21T17:24:06.151Z,97.33
2022-11-21T17:27:12.112Z,97.92
2022-11-21T17:30:16.152Z,97.50
2022-11-21T17:33:19.226Z,98.11
2022-11-21T17:36:27.192Z,99.70
2022-11-21T17:39:30.410Z,100.00
2022-11-21T17:42:33.285Z,100.00
2022-11-21T17:45:36.234Z,100.00
2022-11-21T17:48:40.155Z,100.00
2022-11-21T17:51:42.753Z,100.00
2022-11-21T17:54:44.815Z,100.00
2022-11-21T17:57:47.462Z,100.00
2022-11-21T18:00:55.218Z,100.00
2022-11-21T18:04:02.130Z,100.00
2022-11-21T18:07:04.981Z,100.00
2022-11-21T18:10:35.276Z,100.00
2022-11-21T18:13:32.620Z,100.00
2022-11-21T18:16:36.415Z,100.00
2022-11-21T18:19:40.194Z,99.93
2022-11-21T18:22:46.835Z,98.28
2022-11-21T18:25:50.799Z,97.72
2022-11-21T18:29:28.590Z,98.68
2022-11-21T18:32:24.532Z,98.34
2022-11-21T18:35:28.795Z,99.57
2022-11-21T18:38:48.194Z,98.59
2022-11-21T18:41:51.879Z,97.62
2022-11-21T18:44:54.267Z,96.53
2022-11-21T18:47:56.571Z,96.12
2022-11-21T18:51:11.959Z,96.91
2022-11-21T18:54:14.472Z,97.39
2022-11-21T18:57:16.752Z,97.11
2022-11-21T19:00:19.313Z,96.60
2022-11-21T19:03:22.962Z,97.38
2022-11-21T19:06:26.763Z,97.28
2022-11-21T19:09:32.454Z,98.33
2022-11-21T19:12:39.313Z,99.05
2022-11-21T19:15:43.343Z,99.72
2022-11-21T19:18:59.761Z,100.00
2022-11-21T19:22:08.999Z,100.00
2022-11-21T19:25:11.294Z,100.00
2022-11-21T19:28:13.854Z,100.00
2022-11-21T19:31:18.561Z,100.00
2022-11-21T19:34:21.038Z,100.00
2022-11-21T19:37:23.562Z,100.00
2022-11-21T19:40:25.916Z,100.00
2022-11-21T19:43:30.677Z,100.00
2022-11-21T19:46:35.384Z,100.00
2022-11-21T19:49:37.697Z,100.00
2022-11-21T19:52:39.853Z,100.00
2022-11-21T19:55:42.552Z,100.00
2022-11-21T19:58:45.945Z,100.00
2022-11-21T20:01:52.704Z,100.00
2022-11-21T20:04:55.763Z,100.00
2022-11-21T20:08:03.649Z,100.00
2022-11-21T20:11:11.772Z,100.00
2022-11-21T20:14:21.322Z,100.00
2022-11-21T20:17:24.658Z,100.00
2022-11-21T20:20:30.602Z,100.00
2022-11-21T20:23:33.497Z,100.00
2022-11-21T20:26:36.685Z,100.00
2022-11-21T20:29:39.874Z,100.00
2022-11-21T20:32:42.298Z,100.00
2022-11-21T20:35:44.710Z,100.00
2022-11-21T20:39:07.996Z,100.00
2022-11-21T20:42:17.193Z,100.00
2022-11-21T20:46:07.005Z,100.00
2022-11-21T20:48:48.692Z,100.00
2022-11-21T20:55:14.258Z,100.00
2022-11-21T20:58:17.011Z,100.00
2022-11-21T21:01:21.296Z,100.00
2022-11-21T21:04:23.471Z,100.00
2022-11-21T21:07:25.815Z,100.00
2022-11-21T21:10:33.933Z,100.00
2022-11-21T21:13:50.419Z,100.00
2022-11-21T21:16:52.601Z,100.00
2022-11-21T21:19:54.688Z,99.40
2022-11-21T21:22:57.303Z,98.43
2022-11-21T21:26:08.048Z,98.70
2022-11-21T21:29:18.446Z,98.16
2022-11-21T21:32:20.801Z,96.86
2022-11-21T21:35:23.094Z,97.01
2022-11-21T21:38:25.287Z,96.18
2022-11-21T21:41:28.982Z,96.45
2022-11-21T21:44:33.506Z,95.93
2022-11-21T21:47:35.748Z,96.16
2022-11-21T21:50:38.231Z,96.27
2022-11-21T21:53:40.607Z,96.90
2022-11-21T21:56:42.879Z,96.51
2022-11-21T21:59:44.873Z,95.82
2022-11-21T22:02:46.609Z,95.73
2022-11-21T22:05:49.117Z,95.41
2022-11-21T22:08:51.219Z,95.80
2022-11-21T22:11:54.471Z,95.75
2022-11-21T22:14:56.555Z,94.80
2022-11-21T22:17:58.492Z,95.36
2022-11-21T22:21:01.256Z,94.95
2022-11-21T22:27:27.855Z,95.08
2022-11-21T22:30:29.791Z,94.17
2022-11-21T22:33:32.037Z,94.67
2022-11-21T22:36:34.217Z,94.17
2022-11-21T22:39:36.216Z,94.24
2022-11-21T22:42:38.419Z,93.84
2022-11-21T22:45:40.454Z,93.61
2022-11-21T22:48:42.578Z,93.80
2022-11-21T22:51:44.367Z,93.85
2022-11-21T22:54:46.176Z,93.91
2022-11-21T22:57:48.667Z,94.51
2022-11-21T23:00:50.885Z,94.38
2022-11-21T23:03:53.137Z,94.59
2022-11-21T23:06:55.347Z,93.81
2022-11-21T23:09:58.008Z,93.49
2022-11-21T23:13:00.738Z,94.18
2022-11-21T23:16:03.941Z,93.95
2022-11-21T23:19:05.951Z,94.11
2022-11-21T23:22:08.106Z,93.58
2022-11-21T23:25:09.915Z,93.54
2022-11-21T23:28:11.925Z,93.46
2022-11-21T23:31:13.916Z,93.78
2022-11-21T23:34:15.680Z,93.72
2022-11-21T23:37:17.712Z,93.91
2022-11-21T23:40:20.025Z,93.47
2022-11-21T23:43:22.084Z,93.71
2022-11-21T23:46:23.975Z,93.65
2022-11-21T23:49:25.796Z,93.71
2022-11-21T23:52:27.954Z,93.08
2022-11-21T23:55:29.843Z,93.93
2022-11-21T23:58:31.702Z,93.31
